createdAt,value
2022-08-08T00:04:03.679Z,0.1
2022-08-08T00:10:28.305Z,0.1
2022-08-08T00:16:46.580Z,0.5
2022-08-08T00:23:07.918Z,0.5
2022-08-08T00:29:44.536Z,0.6
2022-08-08T00:35:49.609Z,0.6
2022-08-08T00:42:13.258Z,0.8
2022-08-08T00:48:33.594Z,0.8
2022-08-08T00:54:55.474Z,0.4
2022-08-08T01:01:15.892Z,0.4
2022-08-08T01:07:55.145Z,0.3
2022-08-08T01:13:58.731Z,0.3
2022-08-08T01:20:21.844Z,0.9
2022-08-08T01:26:47.822Z,0.9
2022-08-08T01:33:16.529Z,0.4
2022-08-08T01:39:27.786Z,0.4
2022-08-08T01:45:50.345Z,1.8
2022-08-08T01:52:41.963Z,1.8
2022-08-08T01:58:32.173Z,0.9
2022-08-08T02:04:50.999Z,0.9
2022-08-08T02:11:23.360Z,0.6
2022-08-08T02:17:36.121Z,0.6
2022-08-08T02:23:56.518Z,1.6
2022-08-08T02:30:20.849Z,1.6
2022-08-08T02:36:39.777Z,0.9
2022-08-08T02:43:00.553Z,0.9
2022-08-08T02:49:27.472Z,1
2022-08-08T02:55:42.524Z,1
2022-08-08T03:02:05.655Z,0.9
2022-08-08T03:08:25.586Z,0.9
2022-08-08T03:15:54.764Z,0.4
2022-08-08T03:21:09.822Z,0.4
2022-08-08T03:44:15.575Z,1.2
2022-08-08T03:50:38.480Z,0.7
2022-08-08T03:56:58.531Z,0.7
2022-08-08T04:03:25.833Z,0.8
2022-08-08T04:09:59.210Z,0.8
2022-08-08T04:16:05.565Z,0.3
2022-08-08T04:22:24.544Z,0.3
2022-08-08T04:28:47.555Z,1.2
2022-08-08T04:35:07.564Z,1.2
2022-08-08T04:41:35.913Z,0.8
2022-08-08T04:47:50.494Z,0.8
2022-08-08T04:54:37.286Z,1
2022-08-08T05:00:33.737Z,1
2022-08-08T05:06:56.603Z,0.5
2022-08-08T05:13:17.659Z,0.5
2022-08-08T05:20:04.773Z,1.2
2022-08-08T05:26:00.297Z,1.2
2022-08-08T05:32:24.479Z,1.5
2022-08-08T05:38:42.518Z,1.5
2022-08-08T05:45:10.489Z,2.1
2022-08-08T05:51:25.885Z,2.1
2022-08-08T05:57:59.588Z,0.9
2022-08-08T06:04:08.645Z,0.9
2022-08-08T06:10:31.509Z,1.6
2022-08-08T06:16:52.100Z,1.6
2022-08-08T06:23:15.877Z,2.5
2022-08-08T06:29:48.988Z,2.5
2022-08-08T06:36:05.037Z,1.4
2022-08-08T06:42:17.661Z,1.4
2022-08-08T06:48:42.365Z,2.7
2022-08-08T06:55:00.584Z,2.7
2022-08-08T07:02:14.250Z,4.6
2022-08-08T07:07:43.539Z,4.6
2022-08-08T07:14:06.589Z,2.9
2022-08-08T07:20:26.615Z,2.9
2022-08-08T07:26:50.698Z,1.9
2022-08-08T07:33:10.160Z,1.9
2022-08-08T07:39:46.086Z,2.6
2022-08-08T07:46:05.999Z,2.6
2022-08-08T07:52:15.767Z,1.9
2022-08-08T07:58:35.524Z,1.9
2022-08-08T08:04:58.587Z,2.6
2022-08-08T08:11:21.049Z,2.6
2022-08-08T08:17:44.931Z,3.6
2022-08-08T08:24:02.720Z,3.6
2022-08-08T08:30:25.061Z,2.5
2022-08-08T08:36:44.536Z,2.5
2022-08-08T08:59:57.599Z,3
2022-08-08T09:05:54.639Z,3
2022-08-08T09:12:15.524Z,2.9
2022-08-08T09:18:35.500Z,2.9
2022-08-08T09:24:58.715Z,1.8
2022-08-08T09:31:18.529Z,1.8
2022-08-08T09:37:59.189Z,2.2
2022-08-08T09:44:04.900Z,2.2
2022-08-08T09:50:24.754Z,1.1
2022-08-08T09:56:45.437Z,1.1
2022-08-08T10:03:07.586Z,0.8
2022-08-08T10:09:27.530Z,0.8
2022-08-08T10:15:59.619Z,0.2
2022-08-08T10:22:10.529Z,0.2
2022-08-08T10:28:33.685Z,1
2022-08-08T10:34:58.700Z,1
2022-08-08T10:41:16.477Z,0.3
2022-08-08T10:47:43.499Z,0.3
2022-08-08T10:54:01.945Z,0.9
2022-08-08T11:00:20.606Z,0.9
2022-08-08T11:06:47.249Z,0.6
2022-08-08T11:13:25.692Z,0.6
2022-08-08T11:19:25.538Z,1.2
2022-08-08T11:25:53.673Z,1.2
2022-08-08T11:32:08.479Z,0.7
2022-08-08T11:38:37.322Z,0.7
2022-08-08T11:44:51.468Z,0.6
2022-08-08T11:51:31.021Z,0.6
2022-08-08T11:57:35.180Z,1.4
2022-08-08T12:03:58.903Z,1.4
2022-08-08T12:10:17.825Z,1
2022-08-08T12:16:44.741Z,1
2022-08-08T12:23:00.516Z,1
2022-08-08T12:29:21.380Z,1
2022-08-08T12:35:52.132Z,0.6
2022-08-08T12:42:04.673Z,0.6
2022-08-08T12:48:36.065Z,1.4
2022-08-08T12:54:47.514Z,1.4
2022-08-08T13:01:10.870Z,0.5
2022-08-08T13:08:02.573Z,0.5
2022-08-08T13:13:52.514Z,0.5
2022-08-08T13:20:12.559Z,0.5
2022-08-08T13:26:35.948Z,0.5
2022-08-08T13:32:55.978Z,0.5
2022-08-08T13:39:18.510Z,0.6
2022-08-08T13:45:38.520Z,0.6
2022-08-08T13:52:01.729Z,0.2
2022-08-08T13:58:21.523Z,0.2
2022-08-08T14:04:45.325Z,1.2
2022-08-08T14:11:04.484Z,1.2
2022-08-08T14:34:29.748Z,2
2022-08-08T14:40:52.533Z,2
2022-08-08T14:47:16.851Z,2
2022-08-08T14:53:35.479Z,1
2022-08-08T14:59:56.085Z,1
2022-08-08T15:06:18.526Z,1.6
2022-08-08T15:12:38.830Z,1.6
2022-08-08T15:19:01.530Z,0.9
2022-08-08T15:25:26.108Z,0.9
2022-08-08T15:31:56.121Z,3.3
2022-08-08T15:38:04.516Z,3.3
2022-08-08T15:44:27.475Z,0.9
2022-08-08T15:50:47.517Z,0.9
2022-08-08T15:57:10.796Z,1.3
2022-08-08T16:03:30.471Z,1.3
2022-08-08T16:13:06.029Z,1.6
2022-08-08T16:16:18.250Z,1.6
2022-08-08T16:22:37.024Z,1.3
2022-08-08T16:28:56.480Z,1.3
2022-08-08T16:35:23.079Z,2.1
2022-08-08T16:41:39.525Z,2.1
2022-08-08T16:48:02.480Z,1
2022-08-08T16:54:57.991Z,1
2022-08-08T17:00:48.574Z,0.9
2022-08-08T17:07:05.519Z,0.9
2022-08-08T17:13:40.833Z,1.2
2022-08-08T17:19:48.477Z,1.2
2022-08-08T17:26:11.628Z,0.8
2022-08-08T17:32:34.202Z,0.8
2022-08-08T17:38:54.546Z,1
2022-08-08T17:45:23.103Z,1
2022-08-08T17:51:37.563Z,2
2022-08-08T17:57:57.555Z,2
2022-08-08T18:04:20.490Z,1.8
2022-08-08T18:10:40.530Z,1.8
2022-08-08T18:17:03.599Z,2.2
2022-08-08T18:23:23.517Z,2.2
2022-08-08T18:29:46.683Z,2
2022-08-08T18:36:10.297Z,2
2022-08-08T18:42:29.578Z,1.6
2022-08-08T18:48:49.513Z,1.6
2022-08-08T18:55:12.558Z,2.2
2022-08-08T19:02:13.867Z,2.2
2022-08-08T19:07:55.574Z,0.3
2022-08-08T19:14:20.446Z,0.3
2022-08-08T19:20:39.207Z,1.1
2022-08-08T19:26:58.485Z,1.1
2022-08-08T19:33:21.555Z,1.4
2022-08-08T19:39:41.525Z,1.4
2022-08-08T19:46:04.478Z,2.5
2022-08-08T20:10:03.427Z,2.9
2022-08-08T20:16:29.300Z,2.9
2022-08-08T20:22:46.512Z,2.4
2022-08-08T20:29:06.473Z,2.4
2022-08-08T20:35:32.540Z,2
2022-08-08T20:41:48.988Z,2
2022-08-08T20:48:08.483Z,1
2022-08-08T20:54:28.582Z,1
2022-08-08T21:00:51.519Z,1.1
2022-08-08T21:07:13.945Z,1.1
2022-08-08T21:13:40.130Z,1.1
2022-08-08T21:19:58.729Z,1.1
2022-08-08T21:26:21.194Z,1.6
2022-08-08T21:32:37.790Z,1.6
2022-08-08T21:39:00.512Z,1.6
2022-08-08T21:45:21.104Z,1.6
2022-08-08T21:52:09.923Z,2.5
2022-08-08T21:58:04.007Z,2.5
2022-08-08T22:22:24.465Z,3.4
2022-08-08T22:29:05.297Z,3.4
2022-08-08T22:35:05.544Z,3.4
2022-08-08T22:41:25.574Z,3.4
2022-08-08T22:47:49.186Z,2.3
2022-08-08T22:54:29.048Z,2.3
2022-08-08T23:00:31.488Z,1.8
2022-08-08T23:06:51.590Z,1.8
2022-08-08T23:13:14.500Z,1.9
2022-08-08T23:19:34.541Z,1.9
2022-08-08T23:25:57.512Z,2
2022-08-08T23:32:17.481Z,2
2022-08-08T23:38:41.820Z,2.4
2022-08-08T23:45:00.620Z,2.4
2022-08-08T23:51:41.723Z,1.3
2022-08-08T23:57:52.611Z,1.3
